Marshall Don Hunter Sr Airport Marshall US
ICAO: PADM
IATA:
Category: Medium
Scheduled Services:

Elevation: 103 ft
TransAlt. 18000 ft.

Airport Communications:
ANCHORAGE CNTR:132.3
CTAF:122.9
ST MARYS RDO:124

PADM Zoom In..

If you have problems with the map follow the link
https://www.worldairports.se/pages/airport.php?
ICAO=PADM

Runways:

(A) RW 07 length 3200 ft width 100 ft
---- / hdg 70

(B) RW 25 length 3200 ft width 100 ft
---- / hdg 250

Location; PADM
Day. 06 / Time. 10.17 Zulu
* Altimeter: 29.60
* Temperature: -17° c. -1.4°f.
* Wind from: 060° Speed 24 kn.
Dewpoint: -19° c.
Visibility: 2 Statute Miles.
Clouds: Clear (automated report).
Conditions: Light Snow.Conditions: Mist.

PADM 061017Z AUTO 06024KT 2SM -SN BR CLR M17/M19 A2960 RMK AO2 PK WND 05031/1007 P0000 FZRANO


Wind From 060°
Speed 24 kn.

 
 
jpsmedia worldairports.se 2019   terms of use